Due to severe server failure at the provider, not all demo sites are operational. Will take some days to rebuilt everything.

Demonstration site - Click on the  for more information

This is an optional block. Switch it on/off in your settings-file: $SITE['bannerTop'] = false; or $SITE['bannerBottom'] = false;

You can display ads, any other important text or photo’s using text / html or PHP code.

You can place one or more at the top and or bottom and it can all be different for content / size .



Visit our other weather sites:

Template documentation
and downloads

And another site



Nearby METAR Reports

   
EBAW - Antwerp
Updated: 23-01-2020 18:50
Mist, Mostly Cloudy  
Mist, Mostly Cloudy  
   Wind: ESE 11.1 km/h
Wind: ESE 11.1 km/h
Temperature: 3°C
Wind Chill: 0°C
Dew Point: 2°C
Humidity: 93%
Barometer: 1028 hPa
Clouds: Mostly Cloudy
Visibility: 4 km
Cloud details: Mostly Cloudy 500 ft
EBAW 231750Z 12006KT 3600 BR BKN005 03/02 Q1028 NOSIG
EBLG - Liège
Updated: 23-01-2020 18:50
Mist, Mostly Cloudy  
Mist, Mostly Cloudy  
   Wind: NE 9.3 km/h
Wind: NE 9.3 km/h
Temperature: 2°C
Wind Chill: -1°C
Dew Point: 1°C
Humidity: 93%
Barometer: 1026 hPa
Clouds: Mostly Cloudy
Visibility: 5 km
Cloud details: Partly Cloudy 300 ft,
Mostly Cloudy 400 ft
EBLG 231750Z 05005KT 5000 BR SCT003 BKN004 02/01 Q1026 BECMG 3000 BR
EBCV - Mons/Bergen
Updated: 23-01-2020 18:55
Fog, Overcast  
Fog, Overcast  
   Wind: East 11.1 km/h
Wind: East 11.1 km/h
Temperature: 2°C
Wind Chill: -1°C
Dew Point: 2°C
Humidity: 100%
Barometer: 1027 hPa
Clouds: Overcast
Visibility: 1 km
Cloud details: Overcast 200 ft
EBCV 231755Z AUTO 10006KT 0750 FG OVC002/// 02/02 Q1027 RED
EHBK - Maastricht
Updated: 23-01-2020 18:55
Mist, Overcast  
Mist, Overcast  
   Wind: East 11.1 km/h
Wind: East 11.1 km/h
Temperature: 2°C
Wind Chill: -1°C
Dew Point: 1°C
Humidity: 93%
Barometer: 1027 hPa
Clouds: Overcast
Visibility: 5 km
Cloud details: Overcast 400 ft
EHBK 231755Z AUTO 10006KT 070V130 5000 BR OVC004 02/01 Q1027 BECMG 4000
ELLX - Luxemburg
Updated: 23-01-2020 18:50
Mist, Mostly Cloudy  
Mist, Mostly Cloudy  
   Wind: ENE 13 km/h
Wind: ENE 13 km/h
Temperature: 0°C
Wind Chill: -4°C
Dew Point: -1°C
Humidity: 93%
Barometer: 1026 hPa
Clouds: Mostly Cloudy
Visibility: 3 km
Cloud details: Mostly Cloudy 300 ft
ELLX 231750Z 07007KT 3000 BR BKN003 M00/M01 Q1026 R06/19//53 NOSIG
EBOS - Oostende
Updated: 23-01-2020 18:50
Partly Cloudy  
Partly Cloudy  
   Wind: ENE 9.3 km/h
Wind: ENE 9.3 km/h
Temperature: 3°C
Wind Chill: 1°C
Dew Point: 1°C
Humidity: 87%
Barometer: 1027 hPa
Clouds: Partly Cloudy
Visibility: More than 10 km
Cloud details: Partly Cloudy 1600 ft
EBOS 231750Z 07005KT 9999 SCT016 03/01 Q1027 NOSIG

Script developed by  Saratoga-weather.org Adapted for the template by  Weerstation Leuven

This is an optional block. Switch it on/off in your settings-file: $SITE['bannerTop'] = false; or $SITE['bannerBottom'] = false;

You can display ads, any other important text or photo’s using text / html or PHP code.

You can place one or more at the top and or bottom and it can all be different for content / size .